sensor_id;sensor_type;location;lat;lon;timestamp;P1;durP1;ratioP1;P2;durP2;ratioP2
15385;SDS011;7791;47.246;9.648;2022-10-31T00:00:50;168.93;;;35.47;;
15385;SDS011;7791;47.246;9.648;2022-10-31T00:03:16;105.83;;;32.73;;
15385;SDS011;7791;47.246;9.648;2022-10-31T00:05:43;105.73;;;33.27;;
15385;SDS011;7791;47.246;9.648;2022-10-31T00:08:11;118.57;;;34.80;;
15385;SDS011;7791;47.246;9.648;2022-10-31T00:10:37;80.53;;;32.73;;
15385;SDS011;7791;47.246;9.648;2022-10-31T00:13:04;75.23;;;32.77;;
15385;SDS011;7791;47.246;9.648;2022-10-31T00:15:31;95.73;;;34.73;;
15385;SDS011;7791;47.246;9.648;2022-10-31T00:17:58;121.57;;;35.80;;
15385;SDS011;7791;47.246;9.648;2022-10-31T00:20:23;94.40;;;34.30;;
15385;SDS011;7791;47.246;9.648;2022-10-31T00:22:50;394.27;;;46.60;;
15385;SDS011;7791;47.246;9.648;2022-10-31T00:25:17;82.13;;;34.50;;
15385;SDS011;7791;47.246;9.648;2022-10-31T00:27:43;85.37;;;33.80;;
15385;SDS011;7791;47.246;9.648;2022-10-31T00:30:09;74.27;;;33.93;;
15385;SDS011;7791;47.246;9.648;2022-10-31T00:32:35;102.43;;;32.93;;
15385;SDS011;7791;47.246;9.648;2022-10-31T00:35:01;69.90;;;29.97;;
15385;SDS011;7791;47.246;9.648;2022-10-31T00:37:26;73.80;;;30.57;;
15385;SDS011;7791;47.246;9.648;2022-10-31T00:39:52;71.40;;;31.43;;
15385;SDS011;7791;47.246;9.648;2022-10-31T00:42:19;84.73;;;30.57;;
15385;SDS011;7791;47.246;9.648;2022-10-31T00:44:45;65.57;;;30.97;;
15385;SDS011;7791;47.246;9.648;2022-10-31T00:47:11;71.43;;;31.13;;
15385;SDS011;7791;47.246;9.648;2022-10-31T00:49:37;59.90;;;29.03;;
15385;SDS011;7791;47.246;9.648;2022-10-31T00:52:02;72.37;;;31.57;;
15385;SDS011;7791;47.246;9.648;2022-10-31T00:54:28;60.63;;;29.57;;
15385;SDS011;7791;47.246;9.648;2022-10-31T00:56:54;60.07;;;27.57;;
15385;SDS011;7791;47.246;9.648;2022-10-31T00:59:21;62.07;;;28.10;;
15385;SDS011;7791;47.246;9.648;2022-10-31T01:01:47;51.90;;;26.67;;
15385;SDS011;7791;47.246;9.648;2022-10-31T01:04:13;63.67;;;25.90;;
15385;SDS011;7791;47.246;9.648;2022-10-31T01:06:39;51.97;;;24.83;;
15385;SDS011;7791;47.246;9.648;2022-10-31T01:09:05;53.00;;;25.40;;
15385;SDS011;7791;47.246;9.648;2022-10-31T01:11:31;47.93;;;25.90;;
15385;SDS011;7791;47.246;9.648;2022-10-31T01:13:56;63.73;;;25.53;;
15385;SDS011;7791;47.246;9.648;2022-10-31T01:16:25;80.27;;;27.57;;
15385;SDS011;7791;47.246;9.648;2022-10-31T01:18:51;54.77;;;24.83;;
15385;SDS011;7791;47.246;9.648;2022-10-31T01:21:18;68.57;;;25.77;;
15385;SDS011;7791;47.246;9.648;2022-10-31T01:23:45;60.80;;;24.70;;
15385;SDS011;7791;47.246;9.648;2022-10-31T01:26:12;80.10;;;27.10;;
15385;SDS011;7791;47.246;9.648;2022-10-31T01:28:42;74.90;;;26.93;;
15385;SDS011;7791;47.246;9.648;2022-10-31T01:31:10;45.10;;;24.40;;
15385;SDS011;7791;47.246;9.648;2022-10-31T01:33:37;48.77;;;24.17;;
15385;SDS011;7791;47.246;9.648;2022-10-31T01:36:10;51.87;;;25.93;;
15385;SDS011;7791;47.246;9.648;2022-10-31T01:38:38;72.70;;;24.70;;
15385;SDS011;7791;47.246;9.648;2022-10-31T01:41:04;57.20;;;26.43;;
15385;SDS011;7791;47.246;9.648;2022-10-31T01:43:41;51.73;;;25.07;;
15385;SDS011;7791;47.246;9.648;2022-10-31T01:46:11;67.40;;;26.20;;
15385;SDS011;7791;47.246;9.648;2022-10-31T01:48:39;53.30;;;24.73;;
15385;SDS011;7791;47.246;9.648;2022-10-31T01:51:06;53.63;;;25.83;;
15385;SDS011;7791;47.246;9.648;2022-10-31T01:53:33;50.77;;;23.50;;
15385;SDS011;7791;47.246;9.648;2022-10-31T01:56:00;49.23;;;24.57;;
15385;SDS011;7791;47.246;9.648;2022-10-31T01:58:27;50.20;;;24.97;;
15385;SDS011;7791;47.246;9.648;2022-10-31T02:00:55;173.43;;;30.73;;
15385;SDS011;7791;47.246;9.648;2022-10-31T02:03:24;43.63;;;20.93;;
15385;SDS011;7791;47.246;9.648;2022-10-31T02:05:52;45.43;;;22.17;;
15385;SDS011;7791;47.246;9.648;2022-10-31T02:08:20;45.13;;;22.33;;
15385;SDS011;7791;47.246;9.648;2022-10-31T02:10:50;47.70;;;22.90;;
15385;SDS011;7791;47.246;9.648;2022-10-31T02:13:16;42.70;;;22.67;;
15385;SDS011;7791;47.246;9.648;2022-10-31T02:15:44;47.47;;;22.90;;
15385;SDS011;7791;47.246;9.648;2022-10-31T02:18:12;44.83;;;22.83;;
15385;SDS011;7791;47.246;9.648;2022-10-31T02:20:40;52.70;;;25.00;;
15385;SDS011;7791;47.246;9.648;2022-10-31T02:26:26;44.53;;;22.20;;
15385;SDS011;7791;47.246;9.648;2022-10-31T02:29:12;35.67;;;19.97;;
15385;SDS011;7791;47.246;9.648;2022-10-31T02:31:56;41.73;;;21.20;;
15385;SDS011;7791;47.246;9.648;2022-10-31T02:34:26;41.23;;;20.50;;
15385;SDS011;7791;47.246;9.648;2022-10-31T02:37:01;53.63;;;22.47;;
15385;SDS011;7791;47.246;9.648;2022-10-31T02:39:36;39.27;;;20.80;;
15385;SDS011;7791;47.246;9.648;2022-10-31T02:42:07;44.17;;;21.17;;
15385;SDS011;7791;47.246;9.648;2022-10-31T02:44:36;44.13;;;20.73;;
15385;SDS011;7791;47.246;9.648;2022-10-31T02:47:08;41.50;;;20.83;;
15385;SDS011;7791;47.246;9.648;2022-10-31T02:49:40;40.67;;;21.57;;
15385;SDS011;7791;47.246;9.648;2022-10-31T02:52:14;48.17;;;20.13;;
15385;SDS011;7791;47.246;9.648;2022-10-31T02:54:43;35.63;;;19.43;;
15385;SDS011;7791;47.246;9.648;2022-10-31T02:57:11;39.83;;;20.27;;
15385;SDS011;7791;47.246;9.648;2022-10-31T02:59:38;40.07;;;20.27;;
15385;SDS011;7791;47.246;9.648;2022-10-31T03:05:05;43.33;;;20.47;;
15385;SDS011;7791;47.246;9.648;2022-10-31T03:07:38;43.67;;;20.73;;
15385;SDS011;7791;47.246;9.648;2022-10-31T03:10:13;48.57;;;21.70;;
15385;SDS011;7791;47.246;9.648;2022-10-31T03:12:44;44.63;;;19.47;;
15385;SDS011;7791;47.246;9.648;2022-10-31T03:15:17;42.53;;;20.03;;
15385;SDS011;7791;47.246;9.648;2022-10-31T03:17:52;37.83;;;19.67;;
15385;SDS011;7791;47.246;9.648;2022-10-31T03:20:22;38.57;;;20.00;;
15385;SDS011;7791;47.246;9.648;2022-10-31T03:22:53;42.47;;;19.77;;
15385;SDS011;7791;47.246;9.648;2022-10-31T03:25:21;41.17;;;18.67;;
15385;SDS011;7791;47.246;9.648;2022-10-31T03:27:48;41.53;;;20.03;;
15385;SDS011;7791;47.246;9.648;2022-10-31T03:30:15;43.37;;;19.20;;
15385;SDS011;7791;47.246;9.648;2022-10-31T03:32:42;37.37;;;18.70;;
15385;SDS011;7791;47.246;9.648;2022-10-31T03:35:12;37.73;;;18.07;;
15385;SDS011;7791;47.246;9.648;2022-10-31T03:37:41;38.33;;;17.90;;
15385;SDS011;7791;47.246;9.648;2022-10-31T03:40:07;32.43;;;17.20;;
15385;SDS011;7791;47.246;9.648;2022-10-31T03:42:37;41.43;;;19.27;;
15385;SDS011;7791;47.246;9.648;2022-10-31T03:45:06;33.67;;;17.70;;
15385;SDS011;7791;47.246;9.648;2022-10-31T03:47:36;32.67;;;17.30;;
15385;SDS011;7791;47.246;9.648;2022-10-31T03:50:03;37.43;;;17.60;;
15385;SDS011;7791;47.246;9.648;2022-10-31T03:52:32;39.10;;;17.77;;
15385;SDS011;7791;47.246;9.648;2022-10-31T03:55:04;38.43;;;18.70;;
15385;SDS011;7791;47.246;9.648;2022-10-31T03:57:35;32.30;;;17.63;;
15385;SDS011;7791;47.246;9.648;2022-10-31T04:00:05;39.40;;;18.37;;
15385;SDS011;7791;47.246;9.648;2022-10-31T04:02:34;36.07;;;18.53;;
15385;SDS011;7791;47.246;9.648;2022-10-31T04:05:03;37.47;;;19.10;;
15385;SDS011;7791;47.246;9.648;2022-10-31T04:07:33;42.27;;;20.13;;
15385;SDS011;7791;47.246;9.648;2022-10-31T04:10:04;47.90;;;19.63;;
15385;SDS011;7791;47.246;9.648;2022-10-31T04:12:33;34.07;;;17.67;;
15385;SDS011;7791;47.246;9.648;2022-10-31T04:15:01;32.13;;;16.23;;
15385;SDS011;7791;47.246;9.648;2022-10-31T04:17:29;30.67;;;16.33;;
15385;SDS011;7791;47.246;9.648;2022-10-31T04:19:58;34.83;;;16.97;;
15385;SDS011;7791;47.246;9.648;2022-10-31T04:22:24;39.90;;;17.47;;
15385;SDS011;7791;47.246;9.648;2022-10-31T04:24:51;36.10;;;17.57;;
15385;SDS011;7791;47.246;9.648;2022-10-31T04:27:17;32.33;;;16.47;;
15385;SDS011;7791;47.246;9.648;2022-10-31T04:29:43;33.73;;;17.67;;
15385;SDS011;7791;47.246;9.648;2022-10-31T04:32:09;35.90;;;18.00;;
15385;SDS011;7791;47.246;9.648;2022-10-31T04:34:35;33.40;;;16.50;;
15385;SDS011;7791;47.246;9.648;2022-10-31T04:37:01;44.17;;;18.37;;
15385;SDS011;7791;47.246;9.648;2022-10-31T04:39:27;43.03;;;18.90;;
15385;SDS011;7791;47.246;9.648;2022-10-31T04:41:54;36.23;;;18.20;;
15385;SDS011;7791;47.246;9.648;2022-10-31T04:44:20;43.10;;;20.40;;
15385;SDS011;7791;47.246;9.648;2022-10-31T04:46:46;36.03;;;19.10;;
15385;SDS011;7791;47.246;9.648;2022-10-31T04:49:12;42.27;;;18.80;;
15385;SDS011;7791;47.246;9.648;2022-10-31T04:51:37;40.13;;;17.97;;
15385;SDS011;7791;47.246;9.648;2022-10-31T04:54:03;33.80;;;18.07;;
15385;SDS011;7791;47.246;9.648;2022-10-31T04:56:29;36.80;;;18.13;;
15385;SDS011;7791;47.246;9.648;2022-10-31T04:58:56;34.10;;;17.53;;
15385;SDS011;7791;47.246;9.648;2022-10-31T05:01:22;36.10;;;17.30;;
15385;SDS011;7791;47.246;9.648;2022-10-31T05:03:48;41.40;;;17.67;;
15385;SDS011;7791;47.246;9.648;2022-10-31T05:06:13;34.73;;;17.40;;
15385;SDS011;7791;47.246;9.648;2022-10-31T05:08:40;34.37;;;17.90;;
15385;SDS011;7791;47.246;9.648;2022-10-31T05:11:06;33.93;;;17.33;;
15385;SDS011;7791;47.246;9.648;2022-10-31T05:13:32;37.60;;;17.23;;
15385;SDS011;7791;47.246;9.648;2022-10-31T05:15:59;37.80;;;17.20;;
15385;SDS011;7791;47.246;9.648;2022-10-31T05:18:25;34.13;;;17.47;;
15385;SDS011;7791;47.246;9.648;2022-10-31T05:20:51;35.13;;;17.40;;
15385;SDS011;7791;47.246;9.648;2022-10-31T05:23:17;38.63;;;17.63;;
15385;SDS011;7791;47.246;9.648;2022-10-31T05:25:43;30.93;;;16.53;;
15385;SDS011;7791;47.246;9.648;2022-10-31T05:28:10;36.60;;;17.97;;
15385;SDS011;7791;47.246;9.648;2022-10-31T05:30:37;42.57;;;17.83;;
15385;SDS011;7791;47.246;9.648;2022-10-31T05:33:04;50.20;;;26.50;;
15385;SDS011;7791;47.246;9.648;2022-10-31T05:35:31;41.90;;;19.53;;
15385;SDS011;7791;47.246;9.648;2022-10-31T05:37:58;36.60;;;18.03;;
15385;SDS011;7791;47.246;9.648;2022-10-31T05:40:24;31.70;;;16.63;;
15385;SDS011;7791;47.246;9.648;2022-10-31T05:42:51;37.30;;;18.33;;
15385;SDS011;7791;47.246;9.648;2022-10-31T05:45:18;36.63;;;16.80;;
15385;SDS011;7791;47.246;9.648;2022-10-31T05:47:49;34.67;;;15.60;;
15385;SDS011;7791;47.246;9.648;2022-10-31T05:50:17;25.27;;;15.00;;
15385;SDS011;7791;47.246;9.648;2022-10-31T05:52:43;30.33;;;14.93;;
15385;SDS011;7791;47.246;9.648;2022-10-31T05:55:09;42.70;;;16.00;;
15385;SDS011;7791;47.246;9.648;2022-10-31T05:57:35;35.43;;;15.97;;
15385;SDS011;7791;47.246;9.648;2022-10-31T06:00:01;33.73;;;16.37;;
15385;SDS011;7791;47.246;9.648;2022-10-31T06:02:28;50.10;;;16.80;;
15385;SDS011;7791;47.246;9.648;2022-10-31T06:04:54;36.10;;;16.13;;
15385;SDS011;7791;47.246;9.648;2022-10-31T06:07:21;33.27;;;16.10;;
15385;SDS011;7791;47.246;9.648;2022-10-31T06:09:47;37.13;;;15.87;;
15385;SDS011;7791;47.246;9.648;2022-10-31T06:12:13;30.47;;;15.30;;
15385;SDS011;7791;47.246;9.648;2022-10-31T06:14:39;27.20;;;14.73;;
15385;SDS011;7791;47.246;9.648;2022-10-31T06:17:04;32.07;;;16.30;;
15385;SDS011;7791;47.246;9.648;2022-10-31T06:19:31;34.70;;;16.43;;
15385;SDS011;7791;47.246;9.648;2022-10-31T06:21:57;35.27;;;16.27;;
15385;SDS011;7791;47.246;9.648;2022-10-31T06:24:24;38.33;;;16.37;;
15385;SDS011;7791;47.246;9.648;2022-10-31T06:26:50;34.53;;;16.50;;
15385;SDS011;7791;47.246;9.648;2022-10-31T06:29:16;34.73;;;19.10;;
15385;SDS011;7791;47.246;9.648;2022-10-31T06:31:42;30.73;;;15.20;;
15385;SDS011;7791;47.246;9.648;2022-10-31T06:34:08;32.40;;;15.33;;
15385;SDS011;7791;47.246;9.648;2022-10-31T06:36:33;38.07;;;15.80;;
15385;SDS011;7791;47.246;9.648;2022-10-31T06:38:59;36.57;;;17.00;;
15385;SDS011;7791;47.246;9.648;2022-10-31T06:41:27;29.53;;;16.60;;
15385;SDS011;7791;47.246;9.648;2022-10-31T06:43:52;45.17;;;20.37;;
15385;SDS011;7791;47.246;9.648;2022-10-31T06:46:18;31.50;;;15.93;;
15385;SDS011;7791;47.246;9.648;2022-10-31T06:48:44;29.57;;;15.23;;
15385;SDS011;7791;47.246;9.648;2022-10-31T06:51:10;33.60;;;15.93;;
15385;SDS011;7791;47.246;9.648;2022-10-31T06:53:36;36.27;;;16.70;;
15385;SDS011;7791;47.246;9.648;2022-10-31T06:56:02;37.47;;;17.73;;
15385;SDS011;7791;47.246;9.648;2022-10-31T06:58:29;40.30;;;17.50;;
15385;SDS011;7791;47.246;9.648;2022-10-31T07:00:58;38.07;;;17.30;;
15385;SDS011;7791;47.246;9.648;2022-10-31T07:03:24;44.00;;;18.30;;
15385;SDS011;7791;47.246;9.648;2022-10-31T07:05:51;52.20;;;17.47;;
15385;SDS011;7791;47.246;9.648;2022-10-31T07:08:17;35.00;;;16.80;;
15385;SDS011;7791;47.246;9.648;2022-10-31T07:10:43;31.90;;;16.60;;
15385;SDS011;7791;47.246;9.648;2022-10-31T07:13:15;32.40;;;15.83;;
15385;SDS011;7791;47.246;9.648;2022-10-31T07:15:42;33.27;;;15.97;;
15385;SDS011;7791;47.246;9.648;2022-10-31T07:18:09;36.37;;;16.23;;
15385;SDS011;7791;47.246;9.648;2022-10-31T07:20:36;39.07;;;17.80;;
15385;SDS011;7791;47.246;9.648;2022-10-31T07:23:02;41.13;;;19.67;;
15385;SDS011;7791;47.246;9.648;2022-10-31T07:25:28;45.00;;;20.57;;
15385;SDS011;7791;47.246;9.648;2022-10-31T07:27:54;36.00;;;19.00;;
15385;SDS011;7791;47.246;9.648;2022-10-31T07:30:20;26.30;;;13.93;;
15385;SDS011;7791;47.246;9.648;2022-10-31T07:32:48;22.30;;;12.60;;
15385;SDS011;7791;47.246;9.648;2022-10-31T07:35:15;20.23;;;10.77;;
15385;SDS011;7791;47.246;9.648;2022-10-31T07:37:42;20.53;;;10.80;;
15385;SDS011;7791;47.246;9.648;2022-10-31T07:40:09;17.73;;;9.63;;
15385;SDS011;7791;47.246;9.648;2022-10-31T07:42:35;21.47;;;9.07;;
15385;SDS011;7791;47.246;9.648;2022-10-31T07:45:03;19.30;;;8.60;;
15385;SDS011;7791;47.246;9.648;2022-10-31T07:47:30;18.83;;;7.50;;
15385;SDS011;7791;47.246;9.648;2022-10-31T07:50:05;19.07;;;7.23;;
15385;SDS011;7791;47.246;9.648;2022-10-31T07:52:31;13.57;;;6.10;;
15385;SDS011;7791;47.246;9.648;2022-10-31T07:54:57;16.60;;;5.60;;
15385;SDS011;7791;47.246;9.648;2022-10-31T07:57:23;14.93;;;5.00;;
15385;SDS011;7791;47.246;9.648;2022-10-31T07:59:48;13.63;;;5.17;;
15385;SDS011;7791;47.246;9.648;2022-10-31T08:02:14;13.73;;;4.37;;
15385;SDS011;7791;47.246;9.648;2022-10-31T08:04:40;11.37;;;4.30;;
15385;SDS011;7791;47.246;9.648;2022-10-31T08:07:08;10.23;;;4.73;;
15385;SDS011;7791;47.246;9.648;2022-10-31T08:09:35;15.40;;;4.73;;
15385;SDS011;7791;47.246;9.648;2022-10-31T08:12:00;9.70;;;4.40;;
15385;SDS011;7791;47.246;9.648;2022-10-31T08:14:26;7.93;;;3.73;;
15385;SDS011;7791;47.246;9.648;2022-10-31T08:16:55;11.20;;;3.70;;
15385;SDS011;7791;47.246;9.648;2022-10-31T08:19:21;13.37;;;4.57;;
15385;SDS011;7791;47.246;9.648;2022-10-31T08:21:50;13.30;;;4.37;;
15385;SDS011;7791;47.246;9.648;2022-10-31T08:24:17;16.53;;;4.50;;
15385;SDS011;7791;47.246;9.648;2022-10-31T08:26:43;13.43;;;4.30;;
15385;SDS011;7791;47.246;9.648;2022-10-31T08:29:09;12.07;;;4.87;;
15385;SDS011;7791;47.246;9.648;2022-10-31T08:31:35;11.50;;;4.30;;
15385;SDS011;7791;47.246;9.648;2022-10-31T08:34:00;9.00;;;3.63;;
15385;SDS011;7791;47.246;9.648;2022-10-31T08:36:26;8.43;;;3.80;;
15385;SDS011;7791;47.246;9.648;2022-10-31T08:38:54;11.90;;;4.13;;
15385;SDS011;7791;47.246;9.648;2022-10-31T08:41:22;13.33;;;4.10;;
15385;SDS011;7791;47.246;9.648;2022-10-31T08:43:49;11.73;;;3.43;;
15385;SDS011;7791;47.246;9.648;2022-10-31T08:46:14;13.17;;;3.87;;
15385;SDS011;7791;47.246;9.648;2022-10-31T08:48:40;12.00;;;4.30;;
15385;SDS011;7791;47.246;9.648;2022-10-31T08:51:08;11.77;;;3.80;;
15385;SDS011;7791;47.246;9.648;2022-10-31T08:53:34;10.13;;;4.03;;
15385;SDS011;7791;47.246;9.648;2022-10-31T08:56:01;10.10;;;3.70;;
15385;SDS011;7791;47.246;9.648;2022-10-31T08:58:28;9.07;;;3.73;;
15385;SDS011;7791;47.246;9.648;2022-10-31T09:00:55;7.50;;;3.30;;
15385;SDS011;7791;47.246;9.648;2022-10-31T09:03:24;13.53;;;4.50;;
15385;SDS011;7791;47.246;9.648;2022-10-31T09:05:54;10.23;;;3.30;;
15385;SDS011;7791;47.246;9.648;2022-10-31T09:08:21;9.10;;;2.58;;
15385;SDS011;7791;47.246;9.648;2022-10-31T09:10:47;7.10;;;3.28;;
15385;SDS011;7791;47.246;9.648;2022-10-31T09:13:13;11.15;;;3.38;;
15385;SDS011;7791;47.246;9.648;2022-10-31T09:15:43;8.02;;;3.20;;
15385;SDS011;7791;47.246;9.648;2022-10-31T09:18:10;9.10;;;3.00;;
15385;SDS011;7791;47.246;9.648;2022-10-31T09:20:37;7.55;;;3.05;;
15385;SDS011;7791;47.246;9.648;2022-10-31T09:23:04;6.22;;;2.22;;
15385;SDS011;7791;47.246;9.648;2022-10-31T09:25:32;6.72;;;2.80;;
15385;SDS011;7791;47.246;9.648;2022-10-31T09:27:59;6.97;;;3.03;;
15385;SDS011;7791;47.246;9.648;2022-10-31T09:30:27;8.18;;;3.25;;
15385;SDS011;7791;47.246;9.648;2022-10-31T09:32:56;9.60;;;3.05;;
15385;SDS011;7791;47.246;9.648;2022-10-31T09:35:22;9.30;;;4.25;;
15385;SDS011;7791;47.246;9.648;2022-10-31T09:37:53;12.13;;;4.00;;
15385;SDS011;7791;47.246;9.648;2022-10-31T09:40:19;8.93;;;4.68;;
15385;SDS011;7791;47.246;9.648;2022-10-31T09:42:48;10.05;;;5.60;;
15385;SDS011;7791;47.246;9.648;2022-10-31T09:45:21;11.80;;;6.60;;
15385;SDS011;7791;47.246;9.648;2022-10-31T09:47:54;12.37;;;5.70;;
15385;SDS011;7791;47.246;9.648;2022-10-31T09:50:38;12.57;;;6.40;;
15385;SDS011;7791;47.246;9.648;2022-10-31T09:53:09;13.70;;;5.93;;
15385;SDS011;7791;47.246;9.648;2022-10-31T09:55:42;17.33;;;5.20;;
15385;SDS011;7791;47.246;9.648;2022-10-31T09:58:13;11.60;;;5.57;;
15385;SDS011;7791;47.246;9.648;2022-10-31T10:00:41;11.50;;;5.57;;
15385;SDS011;7791;47.246;9.648;2022-10-31T10:03:11;22.93;;;5.80;;
15385;SDS011;7791;47.246;9.648;2022-10-31T10:05:50;20.37;;;6.03;;
15385;SDS011;7791;47.246;9.648;2022-10-31T10:08:20;12.40;;;5.83;;
15385;SDS011;7791;47.246;9.648;2022-10-31T10:10:49;12.83;;;6.83;;
15385;SDS011;7791;47.246;9.648;2022-10-31T10:13:25;13.90;;;7.10;;
15385;SDS011;7791;47.246;9.648;2022-10-31T10:19:00;13.00;;;6.67;;
15385;SDS011;7791;47.246;9.648;2022-10-31T10:21:35;9.30;;;6.20;;
15385;SDS011;7791;47.246;9.648;2022-10-31T10:24:12;19.57;;;6.63;;
15385;SDS011;7791;47.246;9.648;2022-10-31T10:26:51;14.07;;;5.43;;
15385;SDS011;7791;47.246;9.648;2022-10-31T10:29:29;8.07;;;5.37;;
15385;SDS011;7791;47.246;9.648;2022-10-31T10:32:00;10.50;;;4.57;;
15385;SDS011;7791;47.246;9.648;2022-10-31T10:34:37;11.80;;;6.20;;
15385;SDS011;7791;47.246;9.648;2022-10-31T10:37:08;12.63;;;6.67;;
15385;SDS011;7791;47.246;9.648;2022-10-31T10:39:45;13.17;;;6.90;;
15385;SDS011;7791;47.246;9.648;2022-10-31T10:42:15;12.73;;;7.00;;
15385;SDS011;7791;47.246;9.648;2022-10-31T10:44:42;16.50;;;8.07;;
15385;SDS011;7791;47.246;9.648;2022-10-31T10:47:11;11.70;;;7.10;;
15385;SDS011;7791;47.246;9.648;2022-10-31T10:49:42;31.13;;;7.47;;
15385;SDS011;7791;47.246;9.648;2022-10-31T10:52:13;15.63;;;7.80;;
15385;SDS011;7791;47.246;9.648;2022-10-31T10:54:56;13.87;;;7.87;;
15385;SDS011;7791;47.246;9.648;2022-10-31T10:57:37;12.83;;;7.63;;
15385;SDS011;7791;47.246;9.648;2022-10-31T11:00:21;12.03;;;7.63;;
15385;SDS011;7791;47.246;9.648;2022-10-31T11:02:49;11.43;;;7.33;;
15385;SDS011;7791;47.246;9.648;2022-10-31T11:05:20;20.13;;;8.00;;
15385;SDS011;7791;47.246;9.648;2022-10-31T11:07:49;14.83;;;8.00;;
15385;SDS011;7791;47.246;9.648;2022-10-31T11:10:16;15.30;;;8.83;;
15385;SDS011;7791;47.246;9.648;2022-10-31T11:12:44;16.83;;;8.67;;
15385;SDS011;7791;47.246;9.648;2022-10-31T11:15:23;14.93;;;9.50;;
15385;SDS011;7791;47.246;9.648;2022-10-31T11:17:51;13.73;;;10.10;;
15385;SDS011;7791;47.246;9.648;2022-10-31T11:20:25;16.43;;;10.43;;
15385;SDS011;7791;47.246;9.648;2022-10-31T11:23:00;25.83;;;11.90;;
15385;SDS011;7791;47.246;9.648;2022-10-31T11:25:29;17.47;;;12.43;;
15385;SDS011;7791;47.246;9.648;2022-10-31T11:27:59;22.47;;;12.63;;
15385;SDS011;7791;47.246;9.648;2022-10-31T11:30:25;17.90;;;12.60;;
15385;SDS011;7791;47.246;9.648;2022-10-31T11:32:52;21.00;;;12.83;;
15385;SDS011;7791;47.246;9.648;2022-10-31T11:35:18;17.93;;;12.87;;
15385;SDS011;7791;47.246;9.648;2022-10-31T11:37:48;18.07;;;12.53;;
15385;SDS011;7791;47.246;9.648;2022-10-31T11:40:18;18.67;;;13.57;;
15385;SDS011;7791;47.246;9.648;2022-10-31T11:42:46;19.93;;;12.67;;
15385;SDS011;7791;47.246;9.648;2022-10-31T11:45:16;20.27;;;13.67;;
15385;SDS011;7791;47.246;9.648;2022-10-31T11:47:52;26.07;;;13.77;;
15385;SDS011;7791;47.246;9.648;2022-10-31T11:50:21;20.40;;;12.87;;
15385;SDS011;7791;47.246;9.648;2022-10-31T11:53:02;19.27;;;13.10;;
15385;SDS011;7791;47.246;9.648;2022-10-31T11:55:30;23.10;;;13.30;;
15385;SDS011;7791;47.246;9.648;2022-10-31T11:57:58;22.47;;;12.70;;
15385;SDS011;7791;47.246;9.648;2022-10-31T12:00:25;23.50;;;13.10;;
15385;SDS011;7791;47.246;9.648;2022-10-31T12:03:03;19.43;;;12.73;;
15385;SDS011;7791;47.246;9.648;2022-10-31T12:05:35;16.57;;;12.30;;
15385;SDS011;7791;47.246;9.648;2022-10-31T12:08:06;18.53;;;12.60;;
15385;SDS011;7791;47.246;9.648;2022-10-31T12:10:35;35.83;;;13.03;;
15385;SDS011;7791;47.246;9.648;2022-10-31T12:13:12;16.57;;;11.67;;
15385;SDS011;7791;47.246;9.648;2022-10-31T12:15:53;18.03;;;13.10;;
15385;SDS011;7791;47.246;9.648;2022-10-31T12:18:29;21.73;;;12.93;;
15385;SDS011;7791;47.246;9.648;2022-10-31T12:21:20;21.33;;;13.30;;
15385;SDS011;7791;47.246;9.648;2022-10-31T12:23:56;21.73;;;13.10;;
15385;SDS011;7791;47.246;9.648;2022-10-31T12:26:30;18.33;;;13.00;;
15385;SDS011;7791;47.246;9.648;2022-10-31T12:29:14;20.03;;;13.03;;
15385;SDS011;7791;47.246;9.648;2022-10-31T12:31:58;22.00;;;12.73;;
15385;SDS011;7791;47.246;9.648;2022-10-31T12:34:51;32.53;;;13.97;;
15385;SDS011;7791;47.246;9.648;2022-10-31T12:37:37;20.43;;;13.67;;
15385;SDS011;7791;47.246;9.648;2022-10-31T12:40:18;21.33;;;13.57;;
15385;SDS011;7791;47.246;9.648;2022-10-31T12:42:58;30.40;;;14.80;;
15385;SDS011;7791;47.246;9.648;2022-10-31T12:45:39;25.00;;;14.57;;
15385;SDS011;7791;47.246;9.648;2022-10-31T12:48:18;19.47;;;13.70;;
15385;SDS011;7791;47.246;9.648;2022-10-31T12:51:03;24.27;;;14.20;;
15385;SDS011;7791;47.246;9.648;2022-10-31T12:53:41;22.60;;;13.33;;
15385;SDS011;7791;47.246;9.648;2022-10-31T12:56:21;26.30;;;14.47;;
15385;SDS011;7791;47.246;9.648;2022-10-31T12:58:56;37.17;;;14.90;;
15385;SDS011;7791;47.246;9.648;2022-10-31T13:01:28;21.93;;;14.70;;
15385;SDS011;7791;47.246;9.648;2022-10-31T13:03:58;21.90;;;14.57;;
15385;SDS011;7791;47.246;9.648;2022-10-31T13:06:29;52.07;;;17.13;;
15385;SDS011;7791;47.246;9.648;2022-10-31T13:09:11;21.27;;;14.40;;
15385;SDS011;7791;47.246;9.648;2022-10-31T13:11:44;19.40;;;13.47;;
15385;SDS011;7791;47.246;9.648;2022-10-31T13:14:15;22.13;;;14.67;;
15385;SDS011;7791;47.246;9.648;2022-10-31T13:16:47;54.93;;;16.47;;
15385;SDS011;7791;47.246;9.648;2022-10-31T13:19:15;23.23;;;13.73;;
15385;SDS011;7791;47.246;9.648;2022-10-31T13:21:48;24.20;;;13.63;;
15385;SDS011;7791;47.246;9.648;2022-10-31T13:24:30;21.33;;;13.57;;
15385;SDS011;7791;47.246;9.648;2022-10-31T13:27:01;25.60;;;13.23;;
15385;SDS011;7791;47.246;9.648;2022-10-31T13:29:35;21.07;;;12.63;;
15385;SDS011;7791;47.246;9.648;2022-10-31T13:32:07;20.83;;;13.20;;
15385;SDS011;7791;47.246;9.648;2022-10-31T13:34:36;21.93;;;13.47;;
15385;SDS011;7791;47.246;9.648;2022-10-31T13:37:06;24.83;;;13.63;;
15385;SDS011;7791;47.246;9.648;2022-10-31T13:39:53;20.90;;;13.00;;
15385;SDS011;7791;47.246;9.648;2022-10-31T13:42:43;19.93;;;13.50;;
15385;SDS011;7791;47.246;9.648;2022-10-31T13:45:19;19.33;;;12.93;;
15385;SDS011;7791;47.246;9.648;2022-10-31T13:50:43;21.90;;;13.63;;
15385;SDS011;7791;47.246;9.648;2022-10-31T13:53:22;24.00;;;13.60;;
15385;SDS011;7791;47.246;9.648;2022-10-31T13:56:02;22.27;;;13.27;;
15385;SDS011;7791;47.246;9.648;2022-10-31T13:58:37;22.10;;;12.40;;
15385;SDS011;7791;47.246;9.648;2022-10-31T14:01:10;21.37;;;12.20;;
15385;SDS011;7791;47.246;9.648;2022-10-31T14:03:41;21.17;;;13.13;;
15385;SDS011;7791;47.246;9.648;2022-10-31T14:06:09;21.80;;;12.53;;
15385;SDS011;7791;47.246;9.648;2022-10-31T14:08:47;21.47;;;12.53;;
15385;SDS011;7791;47.246;9.648;2022-10-31T14:11:22;21.43;;;12.23;;
15385;SDS011;7791;47.246;9.648;2022-10-31T14:13:51;21.23;;;12.80;;
15385;SDS011;7791;47.246;9.648;2022-10-31T14:16:20;23.83;;;12.80;;
15385;SDS011;7791;47.246;9.648;2022-10-31T14:18:50;19.37;;;12.67;;
15385;SDS011;7791;47.246;9.648;2022-10-31T14:21:27;20.60;;;12.17;;
15385;SDS011;7791;47.246;9.648;2022-10-31T14:23:54;18.83;;;12.27;;
15385;SDS011;7791;47.246;9.648;2022-10-31T14:26:31;21.63;;;12.23;;
15385;SDS011;7791;47.246;9.648;2022-10-31T14:29:01;19.97;;;12.13;;
15385;SDS011;7791;47.246;9.648;2022-10-31T14:31:45;16.93;;;11.97;;
15385;SDS011;7791;47.246;9.648;2022-10-31T14:34:23;20.27;;;13.10;;
15385;SDS011;7791;47.246;9.648;2022-10-31T14:37:16;20.47;;;12.33;;
15385;SDS011;7791;47.246;9.648;2022-10-31T14:40:08;22.27;;;12.80;;
15385;SDS011;7791;47.246;9.648;2022-10-31T14:42:59;20.07;;;13.53;;
15385;SDS011;7791;47.246;9.648;2022-10-31T14:45:43;21.17;;;14.33;;
15385;SDS011;7791;47.246;9.648;2022-10-31T14:48:23;21.53;;;14.13;;
15385;SDS011;7791;47.246;9.648;2022-10-31T14:50:59;23.83;;;14.87;;
15385;SDS011;7791;47.246;9.648;2022-10-31T14:53:29;21.70;;;14.67;;
15385;SDS011;7791;47.246;9.648;2022-10-31T14:56:16;25.20;;;15.90;;
15385;SDS011;7791;47.246;9.648;2022-10-31T14:58:46;26.03;;;16.70;;
15385;SDS011;7791;47.246;9.648;2022-10-31T15:01:22;27.07;;;17.60;;
15385;SDS011;7791;47.246;9.648;2022-10-31T15:03:50;26.50;;;18.37;;
15385;SDS011;7791;47.246;9.648;2022-10-31T15:06:18;32.90;;;20.07;;